Terminal Aerodrome Forecast
Issued by NWS

Home | Current Version | Previous Version | Text Only | Print | Product List | Glossary On
Versions: 1 2 3 4 5 6 7 8 9 10 11 12 13 14
000
FTUS45 KCYS 192320
TAFLAR
TAF
KLAR 192320Z 2000/2024 23010KT P6SM SCT100
     FM200100 20008KT P6SM SCT150
     FM201600 23020G30KT P6SM BKN150=

USA.gov is the U.S. government's official web portal to all federal, state and local government web resources and services.